17J

Donalsonville Municipal Airport

Donalsonville, Georgia, USA
METAR K17J 161915Z AUTO 33005KT 10SM BKN040 32/25 A3000 RMK AO2 LTG DSNT ALQDS T03190252
Observed Flight Rules
Jul-16 @ 19:15 UTC (32 minutes ago) Visual Flight Rules
Wind Visibility Clouds
330° at 5 knots 10 miles
  • Broken at 4,000' AGL
Temperatures Readings
Current 32°C / 90°F
Dewpoint 25°C / 77°F
Humidity 67%
Altimeter 30" Hg
Pressure 1016 hPa
Elevation 45
METAR K17J 161915Z AUTO 33005KT 10SM BKN040 32/25 A3000 RMK AO2 LTG DSNT ALQDS T03190252
Observed Flight Rules
Jul-16 @ 19:15 UTC
(32 minutes ago)
VFR
Wind Visibility
330° at 5 knots 10 miles
Clouds
  • Broken at 4,000' AGL
Temperature Dewpoint
32°C / 90°F 25°C / 77°F
Humidity Altimeter Pressure
67% 30" Hg 1016 hPa